Time;durP1;ratioP1;P1;durP2;ratioP2;P2;SDS_P1;SDS_P2;PMS_P1;PMS_P2;Temp;Humidity;BMP_temperature;BMP_pressure;BME280_temperature;BME280_humidity;BME280_pressure;Samples;Min_cycle;Max_cycle;Signal;HPM_P1;HPM_P2
2021/06/02 00:02:11;;;;;;;;;10.00;10.00;;;;;27.73;36.87;100677.56;4996599;28;45267;-49
2021/06/02 00:04:45;;;;;;;;;9.50;8.50;;;;;27.71;36.79;100674.19;4996872;28;45390;-46
2021/06/02 00:07:15;;;;;;;;;9.75;9.25;;;;;27.70;37.02;100673.31;4996679;28;46154;-46
2021/06/02 00:09:40;;;;;;;;;12.00;11.50;;;;;27.68;36.89;100675.47;4996320;28;45634;-46
2021/06/02 00:12:09;;;;;;;;;9.00;9.00;;;;;27.66;36.98;100671.22;4996827;28;45280;-45
2021/06/02 00:14:35;;;;;;;;;9.25;9.00;;;;;27.65;36.83;100666.75;4996688;28;45274;-44
2021/06/02 00:17:01;;;;;;;;;9.50;9.00;;;;;27.64;37.23;100663.16;4996215;28;46133;-48
2021/06/02 00:19:27;;;;;;;;;10.00;9.25;;;;;27.62;37.13;100667.16;4995191;28;45302;-47
2021/06/02 00:21:55;;;;;;;;;8.75;8.75;;;;;27.61;37.20;100665.50;4996877;28;45282;-47
2021/06/02 00:24:22;;;;;;;;;11.00;9.00;;;;;27.56;37.26;100660.63;4994982;28;45451;-46
2021/06/02 00:26:51;;;;;;;;;9.25;8.50;;;;;27.58;37.29;100666.75;4996364;28;46295;-49
2021/06/02 00:29:16;;;;;;;;;11.50;11.50;;;;;27.56;37.20;100671.63;4995276;28;45724;-50
2021/06/02 00:31:47;;;;;;;;;8.75;8.00;;;;;27.53;37.17;100664.66;4995007;28;45341;-49
2021/06/02 00:34:13;;;;;;;;;9.00;8.00;;;;;27.51;37.25;100669.53;4996479;28;45296;-46
2021/06/02 00:36:43;;;;;;;;;10.50;10.50;;;;;27.52;37.49;100673.16;4996351;28;45980;-47
2021/06/02 00:39:10;;;;;;;;;10.75;9.75;;;;;27.51;37.12;100679.72;4998412;28;45349;-51
2021/06/02 00:41:37;;;;;;;;;11.00;10.00;;;;;27.49;37.35;100684.59;4999980;28;45694;-45
2021/06/02 00:44:14;;;;;;;;;9.00;9.00;;;;;27.48;37.03;100680.97;5015217;28;45479;-45
2021/06/02 00:46:41;;;;;;;;;10.00;9.25;;;;;27.46;37.42;100674.00;4999579;28;46236;-47
2021/06/02 00:49:14;;;;;;;;;11.25;10.50;;;;;27.45;37.26;100678.69;4999653;28;45665;-48
2021/06/02 00:51:39;;;;;;;;;10.25;10.00;;;;;27.43;37.56;100675.25;4999618;28;45393;-52
2021/06/02 00:54:06;;;;;;;;;8.25;8.25;;;;;27.42;36.99;100677.13;4999760;28;45468;-46
2021/06/02 00:56:47;;;;;;;;;8.75;7.75;;;;;27.42;37.11;100670.78;4999777;28;45347;-47
2021/06/02 00:59:17;;;;;;;;;10.75;10.75;;;;;27.40;37.49;100668.22;4999309;28;45302;-45
2021/06/02 01:01:44;;;;;;;;;8.50;8.50;;;;;27.38;37.54;100667.63;4999369;28;45414;-48
2021/06/02 01:04:10;;;;;;;;;10.00;9.00;;;;;27.36;37.64;100666.97;4999519;28;45300;-48
2021/06/02 01:06:39;;;;;;;;;9.25;9.25;;;;;27.35;37.70;100670.81;4999393;28;46141;-48
2021/06/02 01:09:06;;;;;;;;;8.25;7.25;;;;;27.33;37.60;100663.81;4990896;28;45262;-51
2021/06/02 01:11:32;;;;;;;;;10.50;10.00;;;;;27.30;37.64;100670.59;4993847;28;45357;-49
2021/06/02 01:14:00;;;;;;;;;10.50;10.50;;;;;27.31;37.71;100672.28;4999298;28;45253;-48
2021/06/02 01:16:28;;;;;;;;;11.00;11.00;;;;;27.30;37.36;100670.59;4998953;28;45274;-46
2021/06/02 01:18:53;;;;;;;;;9.75;8.50;;;;;27.28;37.30;100659.78;4999039;28;45720;-46
2021/06/02 01:21:22;;;;;;;;;11.00;11.00;;;;;27.27;37.20;100665.47;4999458;28;45304;-49
2021/06/02 01:23:51;;;;;;;;;10.25;9.00;;;;;27.21;37.24;100663.59;4999247;28;45475;-53
2021/06/02 01:26:18;;;;;;;;;7.50;7.00;;;;;27.23;37.89;100664.25;4999117;28;45992;-47
2021/06/02 01:28:44;;;;;;;;;10.25;10.25;;;;;27.21;37.95;100669.94;4999190;28;45222;-46
2021/06/02 01:31:16;;;;;;;;;8.00;8.00;;;;;27.17;38.10;100663.19;4998968;28;45381;-47
2021/06/02 01:34:25;;;;;;;;;13.00;12.50;;;;;27.17;37.42;100668.69;5030802;28;45281;-44
2021/06/02 01:37:13;;;;;;;;;9.50;9.50;;;;;27.15;37.48;100670.81;4996631;28;45571;-49
2021/06/02 01:39:56;;;;;;;;;7.75;7.25;;;;;27.13;38.22;100665.50;4996713;28;45914;-52
2021/06/02 01:42:43;;;;;;;;;10.25;9.75;;;;;27.12;38.07;100671.22;4996909;28;45542;-51
2021/06/02 01:45:30;;;;;;;;;10.75;10.75;;;;;27.10;38.17;100662.31;4996664;28;45533;-45
2021/06/02 01:48:18;;;;;;;;;9.75;9.75;;;;;27.08;37.64;100670.81;4996599;28;45959;-45
2021/06/02 01:51:07;;;;;;;;;11.00;8.25;;;;;27.06;38.14;100675.69;4995741;28;45677;-45
2021/06/02 01:54:00;;;;;;;;;10.00;9.75;;;;;27.05;37.77;100668.47;4996608;28;45397;-45
2021/06/02 01:56:49;;;;;;;;;11.75;11.50;;;;;27.05;37.77;100668.47;4982425;28;45376;-47
2021/06/02 01:59:46;;;;;;;;;11.50;10.25;;;;;27.02;38.14;100663.38;4979272;28;46099;-48
2021/06/02 02:02:34;;;;;;;;;8.25;8.25;;;;;27.01;38.30;100682.88;4976317;28;45245;-44
2021/06/02 02:05:14;;;;;;;;;9.50;9.50;;;;;26.98;37.72;100679.47;4962413;28;45292;-44
2021/06/02 02:07:56;;;;;;;;;10.00;9.00;;;;;26.97;37.83;100680.53;4976699;28;45359;-46
2021/06/02 02:10:37;;;;;;;;;7.75;7.75;;;;;26.94;38.01;100683.72;4976606;28;46072;-42
2021/06/02 02:13:41;;;;;;;;;10.00;9.25;;;;;26.94;38.40;100671.84;4980583;28;45513;-51
2021/06/02 02:16:15;;;;;;;;;10.50;10.25;;;;;26.92;38.48;100669.28;4978933;28;45397;-45
2021/06/02 02:19:18;;;;;;;;;9.50;9.50;;;;;26.91;38.33;100683.28;4977573;28;45434;-47
2021/06/02 02:21:53;;;;;;;;;7.75;7.75;;;;;26.89;38.36;100678.00;4978586;28;46237;-44
2021/06/02 02:24:27;;;;;;;;;11.00;9.75;;;;;26.89;38.73;100679.88;4978563;28;45667;-51
2021/06/02 02:27:00;;;;;;;;;10.25;9.25;;;;;26.87;38.58;100680.13;4978670;28;45327;-48
2021/06/02 02:29:42;;;;;;;;;11.25;10.00;;;;;26.87;38.67;100676.50;4978604;28;45393;-46
2021/06/02 02:32:17;;;;;;;;;11.25;8.50;;;;;26.86;38.26;100677.53;4978440;28;45233;-46
2021/06/02 02:34:56;;;;;;;;;8.50;8.50;;;;;26.83;38.41;100687.91;4978536;28;45541;-46
2021/06/02 02:37:59;;;;;;;;;11.00;10.00;;;;;26.82;38.49;100688.16;4978646;28;45381;-46
2021/06/02 02:40:37;;;;;;;;;10.75;9.75;;;;;26.80;38.59;100679.25;4978411;28;45278;-47
2021/06/02 02:43:12;;;;;;;;;8.50;8.50;;;;;26.78;38.49;100684.94;4976741;28;47871;-43
2021/06/02 02:45:40;;;;;;;;;8.00;7.75;;;;;26.77;38.40;100685.13;4978279;28;45566;-45
2021/06/02 02:48:38;;;;;;;;;8.00;8.00;;;;;26.77;38.83;100690.63;4981286;28;45357;-45
2021/06/02 02:51:17;;;;;;;;;8.00;8.00;;;;;26.76;38.56;100694.44;4997941;28;45360;-49
2021/06/02 02:54:10;;;;;;;;;9.25;9.25;;;;;26.74;38.40;100686.41;4997388;28;45360;-46
2021/06/02 02:57:06;;;;;;;;;10.50;9.00;;;;;26.73;39.14;100683.88;4997643;28;45489;-46
2021/06/02 02:59:52;;;;;;;;;10.50;9.50;;;;;26.71;38.47;100684.06;4986772;28;45368;-48
2021/06/02 03:02:29;;;;;;;;;8.50;8.50;;;;;26.71;38.61;100681.31;4997597;28;45333;-49
2021/06/02 03:04:59;;;;;;;;;9.25;9.25;;;;;26.69;38.73;100680.66;4997566;28;45362;-46
2021/06/02 03:07:28;;;;;;;;;9.25;9.00;;;;;26.64;39.09;100675.78;4996273;28;45522;-48
2021/06/02 03:10:02;;;;;;;;;9.00;8.00;;;;;26.67;38.63;100686.38;4997326;28;45378;-49
2021/06/02 03:12:39;;;;;;;;;9.00;9.00;;;;;26.66;38.57;100681.94;4997352;28;45301;-53
2021/06/02 03:15:27;;;;;;;;;8.50;8.50;;;;;26.65;38.85;100673.91;4997351;28;45484;-48
2021/06/02 03:18:16;;;;;;;;;12.50;11.00;;;;;26.64;38.82;100680.47;4997387;28;45172;-47
2021/06/02 03:20:55;;;;;;;;;12.75;12.75;;;;;26.62;39.23;100694.41;4997271;28;45327;-49
2021/06/02 03:23:44;;;;;;;;;11.25;10.50;;;;;26.63;38.90;100695.28;4996522;28;45305;-50
2021/06/02 03:26:26;;;;;;;;;10.75;10.75;;;;;26.60;38.73;100690.19;4997147;28;45273;-48
2021/06/02 03:29:18;;;;;;;;;9.25;8.75;;;;;26.61;38.93;100689.13;4997381;28;45538;-50
2021/06/02 03:32:08;;;;;;;;;11.25;9.25;;;;;26.59;38.86;100685.72;4997323;28;45288;-46
2021/06/02 03:34:54;;;;;;;;;12.50;12.50;;;;;26.58;39.47;100689.53;4997219;28;45460;-49
2021/06/02 03:37:49;;;;;;;;;10.25;9.25;;;;;26.56;38.80;100681.50;4997217;28;46439;-47
2021/06/02 03:40:43;;;;;;;;;8.25;8.25;;;;;26.54;39.48;100684.44;4996100;28;45470;-50
2021/06/02 03:43:40;;;;;;;;;10.25;9.25;;;;;26.53;39.30;100691.03;4997169;28;45455;-51
2021/06/02 03:46:32;;;;;;;;;7.00;7.00;;;;;26.52;38.90;100685.72;4977604;28;45535;-51
2021/06/02 03:49:25;;;;;;;;;9.75;8.50;;;;;26.51;39.38;100684.00;4977261;28;45268;-48
2021/06/02 03:52:02;;;;;;;;;9.75;9.00;;;;;26.50;38.90;100683.16;4977265;28;45788;-45
2021/06/02 03:54:32;;;;;;;;;8.25;8.25;;;;;26.48;39.54;100682.53;4977066;28;45245;-42
2021/06/02 03:57:35;;;;;;;;;8.25;8.25;;;;;26.47;38.92;100700.09;4977338;28;45369;-50
2021/06/02 04:00:19;;;;;;;;;11.25;9.50;;;;;26.47;38.83;100685.50;4989639;28;45377;-44
2021/06/02 04:02:54;;;;;;;;;9.00;8.00;;;;;26.46;39.02;100684.63;4996783;28;45372;-51
2021/06/02 04:05:38;;;;;;;;;7.50;7.50;;;;;26.45;39.18;100688.44;4996947;28;45440;-44
2021/06/02 04:08:12;;;;;;;;;8.50;8.00;;;;;26.44;39.04;100689.50;4996687;28;45490;-43
2021/06/02 04:10:37;;;;;;;;;9.00;9.00;;;;;26.43;39.51;100696.06;4976731;28;45337;-50
2021/06/02 04:13:30;;;;;;;;;10.00;8.00;;;;;26.44;39.04;100694.16;4976081;28;45246;-46
2021/06/02 04:16:12;;;;;;;;;7.00;7.00;;;;;26.42;39.48;100690.75;4994484;28;45404;-45
2021/06/02 04:18:40;;;;;;;;;8.00;8.00;;;;;26.42;39.25;100693.50;4996573;28;45391;-49
2021/06/02 04:21:06;;;;;;;;;8.25;7.50;;;;;26.40;39.09;100693.69;4996464;28;45507;-46
2021/06/02 04:23:36;;;;;;;;;7.00;6.00;;;;;26.40;39.62;100696.47;4994831;28;45372;-47
2021/06/02 04:26:02;;;;;;;;;7.25;5.75;;;;;26.37;39.54;100697.72;4996724;28;45377;-48
2021/06/02 04:28:31;;;;;;;;;8.50;8.50;;;;;26.37;39.01;100707.91;4996523;28;45266;-51
2021/06/02 04:31:06;;;;;;;;;8.00;8.00;;;;;26.36;39.65;100704.28;5011614;28;45612;-45
2021/06/02 04:33:33;;;;;;;;;8.25;7.25;;;;;26.36;39.46;100695.19;4996253;28;45469;-48
2021/06/02 04:35:59;;;;;;;;;6.25;6.25;;;;;26.35;39.09;100685.25;4996465;28;45302;-43
2021/06/02 04:38:25;;;;;;;;;7.00;6.50;;;;;26.34;39.60;100683.53;5027647;28;45351;-48
2021/06/02 04:40:52;;;;;;;;;7.25;6.25;;;;;26.33;39.40;100696.44;4996285;28;45259;-44
2021/06/02 04:43:19;;;;;;;;;7.25;7.25;;;;;26.33;39.57;100701.09;4996007;28;45862;-44
2021/06/02 04:45:59;;;;;;;;;7.00;7.00;;;;;26.33;39.31;100701.94;4996438;28;45251;-47
2021/06/02 04:48:26;;;;;;;;;8.00;7.50;;;;;26.31;39.21;100693.06;4996395;28;45215;-48
2021/06/02 04:51:01;;;;;;;;;6.00;6.00;;;;;26.31;39.55;100700.44;4996195;28;46171;-47
2021/06/02 04:54:04;;;;;;;;;8.50;6.75;;;;;26.29;39.33;100703.41;4995791;28;45374;-49
2021/06/02 04:56:55;;;;;;;;;7.00;7.00;;;;;26.29;39.27;100703.41;4996133;28;45377;-49
2021/06/02 04:59:57;;;;;;;;;7.00;7.00;;;;;26.28;39.29;100715.47;4995774;28;45471;-45
2021/06/02 05:02:54;;;;;;;;;8.00;5.75;;;;;26.27;39.21;100712.91;4996088;28;45348;-50
2021/06/02 05:05:29;;;;;;;;;8.25;6.50;;;;;26.26;39.81;100717.59;4995920;28;45337;-49
2021/06/02 05:08:39;;;;;;;;;8.00;8.00;;;;;26.28;39.69;100736.63;4995534;28;45452;-47
2021/06/02 05:11:52;;;;;;;;;6.00;6.00;;;;;26.26;39.73;100713.97;5000517;28;45389;-52
2021/06/02 05:14:56;;;;;;;;;7.00;6.00;;;;;26.25;39.38;100721.38;4995862;28;46066;-46
2021/06/02 05:17:42;;;;;;;;;7.50;7.50;;;;;26.25;39.80;100723.31;5010944;28;45639;-51
2021/06/02 05:20:39;;;;;;;;;7.75;6.00;;;;;26.24;39.82;100719.69;4996026;28;45259;-48
2021/06/02 05:23:26;;;;;;;;;6.50;6.50;;;;;26.23;39.88;100729.00;4995550;28;45427;-46
2021/06/02 05:26:16;;;;;;;;;6.00;6.00;;;;;26.22;39.51;100719.91;4998775;28;45475;-44
2021/06/02 05:29:00;;;;;;;;;6.00;6.00;;;;;26.21;39.71;100740.22;4998867;28;45246;-42
2021/06/02 05:31:38;;;;;;;;;7.75;5.75;;;;;26.21;39.66;100745.72;5014170;28;45250;-44
2021/06/02 05:34:18;;;;;;;;;6.25;6.25;;;;;26.21;39.61;100733.84;4999131;28;45502;-52
2021/06/02 05:37:23;;;;;;;;;5.00;5.00;;;;;26.20;39.61;100741.28;4998610;28;45293;-45
2021/06/02 05:40:23;;;;;;;;;7.00;7.00;;;;;26.20;39.67;100734.91;4998945;28;45585;-47
2021/06/02 05:42:55;;;;;;;;;8.50;7.00;;;;;26.20;40.12;100746.78;4999014;28;45369;-47
2021/06/02 05:45:45;;;;;;;;;6.00;6.00;;;;;26.20;40.07;100752.28;4999077;28;45427;-46
2021/06/02 05:48:32;;;;;;;;;6.00;6.00;;;;;26.20;40.18;100743.16;4998787;28;45385;-51
2021/06/02 05:51:22;;;;;;;;;9.00;7.00;;;;;26.20;39.75;100751.41;4998484;28;45452;-45
2021/06/02 05:54:15;;;;;;;;;8.00;6.00;;;;;26.20;39.80;100752.28;4998784;28;45339;-44
2021/06/02 05:57:16;;;;;;;;;7.00;7.00;;;;;26.20;39.94;100757.78;4998767;28;45307;-48
2021/06/02 05:59:50;;;;;;;;;7.75;7.75;;;;;26.20;39.92;100759.66;4988571;28;46198;-44
2021/06/02 06:02:34;;;;;;;;;7.00;7.00;;;;;26.21;39.93;100761.38;5013877;28;45550;-46
2021/06/02 06:05:16;;;;;;;;;7.00;7.00;;;;;26.20;40.19;100757.78;4998442;28;45322;-45
2021/06/02 06:08:01;;;;;;;;;8.50;8.50;;;;;26.20;39.96;100757.78;4997254;28;45402;-46
2021/06/02 06:10:45;;;;;;;;;9.25;8.25;;;;;26.20;40.07;100751.41;4997780;28;46378;-49
2021/06/02 06:13:55;;;;;;;;;8.00;8.00;;;;;26.20;40.04;100760.53;4998172;28;45695;-43
2021/06/02 06:16:54;;;;;;;;;8.75;7.50;;;;;26.20;40.10;100748.66;4993671;28;45401;-44
2021/06/02 06:19:56;;;;;;;;;10.25;8.50;;;;;26.19;40.58;100761.59;4998137;28;45374;-44
2021/06/02 06:22:43;;;;;;;;;8.75;8.25;;;;;26.18;40.41;100754.38;4998085;28;46052;-50
2021/06/02 06:25:13;;;;;;;;;7.50;7.50;;;;;26.18;40.89;100759.88;4998093;28;45325;-46
2021/06/02 06:27:50;;;;;;;;;10.50;9.75;;;;;26.19;40.74;100761.59;5013615;28;45258;-46
2021/06/02 06:30:22;;;;;;;;;7.00;6.75;;;;;26.20;40.67;100762.41;4998238;28;45259;-47
2021/06/02 06:32:53;;;;;;;;;6.50;6.50;;;;;26.20;40.95;100763.28;4997860;28;45991;-51
2021/06/02 06:35:20;;;;;;;;;6.50;6.50;;;;;26.21;41.10;100764.97;4997516;28;45470;-49
2021/06/02 06:37:49;;;;;;;;;6.50;6.50;;;;;26.21;41.04;100762.22;4997840;28;45392;-45
2021/06/02 06:40:19;;;;;;;;;7.25;6.25;;;;;26.20;41.20;100745.91;4998044;28;45365;-48
2021/06/02 06:42:50;;;;;;;;;11.00;9.00;;;;;26.21;40.77;100759.47;4997817;28;45325;-48
2021/06/02 06:45:23;;;;;;;;;8.00;8.00;;;;;26.18;40.83;100753.53;5028558;28;45317;-52
2021/06/02 06:47:50;;;;;;;;;7.75;7.75;;;;;26.23;41.20;100762.00;4997856;28;45250;-50
2021/06/02 06:50:18;;;;;;;;;8.25;8.00;;;;;26.23;41.09;100762.00;4997986;28;45328;-50
2021/06/02 06:52:47;;;;;;;;;8.50;8.00;;;;;26.24;41.07;100758.22;4997716;28;45350;-50
2021/06/02 06:55:14;;;;;;;;;8.25;7.50;;;;;26.24;41.67;100766.47;5012806;28;45445;-49
2021/06/02 06:57:40;;;;;;;;;9.00;9.00;;;;;26.25;41.17;100772.84;4997781;28;45283;-46
2021/06/02 07:00:09;;;;;;;;;10.00;10.00;;;;;26.26;41.47;100774.50;4997620;28;45290;-47
2021/06/02 07:02:36;;;;;;;;;9.25;9.00;;;;;26.25;41.58;100775.59;4997057;28;46019;-51
2021/06/02 07:05:04;;;;;;;;;10.00;8.00;;;;;26.26;41.37;100764.38;4996577;28;45451;-51
2021/06/02 07:07:31;;;;;;;;;9.00;8.00;;;;;26.26;41.39;100767.13;4996285;28;45413;-49
2021/06/02 07:09:56;;;;;;;;;11.00;8.75;;;;;26.27;41.39;100770.72;4997212;28;45298;-51
2021/06/02 07:12:24;;;;;;;;;8.00;8.00;;;;;26.28;41.38;100778.78;4997401;28;46104;-51
2021/06/02 07:14:50;;;;;;;;;8.75;7.25;;;;;26.28;42.29;100776.03;4997339;28;45704;-48
2021/06/02 07:17:17;;;;;;;;;8.25;8.25;;;;;26.29;42.24;100774.13;4997333;28;45400;-50
2021/06/02 07:19:57;;;;;;;;;8.00;8.00;;;;;26.30;42.21;100778.56;5018413;28;45547;-46
2021/06/02 07:22:24;;;;;;;;;12.50;10.50;;;;;26.30;42.38;100781.31;4996923;28;45421;-50
2021/06/02 07:24:57;;;;;;;;;12.00;10.00;;;;;26.25;42.57;100779.19;4987118;28;45541;-47
2021/06/02 07:27:23;;;;;;;;;11.00;10.50;;;;;26.20;43.83;100774.28;4994727;28;45309;-46
2021/06/02 07:29:48;;;;;;;;;9.25;9.25;;;;;26.16;43.73;100775.75;4996771;28;45498;-46
2021/06/02 07:32:14;;;;;;;;;11.00;9.25;;;;;26.12;43.71;100785.44;4996565;28;46332;-44
2021/06/02 07:34:39;;;;;;;;;8.25;8.00;;;;;26.14;43.37;100783.34;4997120;28;45336;-48
2021/06/02 07:37:05;;;;;;;;;9.75;9.75;;;;;26.16;43.78;100773.00;4997087;28;45411;-53
2021/06/02 07:39:31;;;;;;;;;13.00;10.25;;;;;26.21;43.93;100784.25;4996991;28;45437;-47
2021/06/02 07:41:56;;;;;;;;;12.75;10.00;;;;;26.26;44.15;100788.28;4996943;28;45485;-48
2021/06/02 07:44:22;;;;;;;;;7.75;7.50;;;;;26.29;43.73;100783.22;4996713;28;45440;-50
2021/06/02 07:46:47;;;;;;;;;10.00;9.25;;;;;26.35;44.08;100787.06;4996792;28;45341;-48
2021/06/02 07:49:13;;;;;;;;;9.75;9.75;;;;;26.40;43.54;100794.72;4992505;28;45317;-48
2021/06/02 07:51:39;;;;;;;;;8.75;8.75;;;;;26.41;43.90;100785.41;4981598;28;45985;-44
2021/06/02 07:54:05;;;;;;;;;10.00;10.00;;;;;26.43;43.23;100789.66;4994119;28;45783;-47
2021/06/02 07:56:31;;;;;;;;;9.00;9.00;;;;;26.48;43.61;100786.28;4994929;28;45361;-49
2021/06/02 07:58:56;;;;;;;;;10.50;10.00;;;;;26.51;43.58;100792.25;4995865;28;45460;-44
2021/06/02 08:01:22;;;;;;;;;9.00;9.00;;;;;26.56;43.21;100801.78;4994839;28;46128;-44
2021/06/02 08:03:48;;;;;;;;;9.50;9.00;;;;;26.57;43.42;100797.97;4994628;28;45395;-44
2021/06/02 08:06:13;;;;;;;;;9.75;9.25;;;;;26.58;43.03;100802.41;4995393;28;45447;-47
2021/06/02 08:08:39;;;;;;;;;9.00;9.00;;;;;26.60;42.96;100801.19;4995984;28;45495;-47
2021/06/02 08:11:04;;;;;;;;;7.75;7.75;;;;;26.62;43.34;100800.97;4995682;28;46157;-49
2021/06/02 08:13:30;;;;;;;;;8.50;8.50;;;;;26.62;43.25;100800.97;4995886;28;45440;-48
2021/06/02 08:15:56;;;;;;;;;9.00;9.00;;;;;26.66;43.14;100800.34;4996002;28;45396;-46
2021/06/02 08:18:22;;;;;;;;;10.00;10.00;;;;;26.68;42.94;100802.91;4996367;28;45405;-46
2021/06/02 08:20:48;;;;;;;;;10.50;9.50;;;;;26.71;43.40;100798.88;4994178;28;46002;-48
2021/06/02 08:23:13;;;;;;;;;10.50;10.00;;;;;26.72;43.40;100804.19;5011364;28;45254;-47
2021/06/02 08:25:39;;;;;;;;;11.25;10.25;;;;;26.75;43.21;100808.44;4995545;28;45380;-43
2021/06/02 08:28:04;;;;;;;;;11.00;10.25;;;;;26.73;43.18;100803.13;4995679;28;45362;-48
2021/06/02 08:30:30;;;;;;;;;11.00;10.00;;;;;26.77;43.84;100801.66;4995436;28;46120;-50
2021/06/02 08:32:56;;;;;;;;;10.00;10.00;;;;;26.80;43.61;100814.19;5010710;28;45277;-52
2021/06/02 08:35:22;;;;;;;;;10.75;10.25;;;;;26.81;43.94;100816.75;4996116;28;45485;-48
2021/06/02 08:37:48;;;;;;;;;9.00;9.00;;;;;26.84;43.50;100819.09;4995721;28;45330;-50
2021/06/02 08:40:15;;;;;;;;;11.25;9.25;;;;;26.87;44.17;100814.22;4995542;28;45896;-47
2021/06/02 08:42:47;;;;;;;;;8.00;8.00;;;;;26.88;43.34;100822.31;4984808;28;45649;-44
2021/06/02 08:45:14;;;;;;;;;10.75;10.75;;;;;26.90;43.73;100816.56;4993687;28;45548;-44
2021/06/02 08:47:44;;;;;;;;;11.50;9.50;;;;;26.92;43.26;100817.22;4995944;28;45431;-50
2021/06/02 08:50:13;;;;;;;;;11.00;11.00;;;;;26.95;44.04;100822.31;4995119;28;45508;-47
2021/06/02 08:52:40;;;;;;;;;10.25;10.25;;;;;26.97;44.06;100826.56;4995463;28;45459;-50
2021/06/02 08:55:08;;;;;;;;;11.00;9.75;;;;;26.98;44.04;100825.50;4995717;28;45307;-51
2021/06/02 08:57:38;;;;;;;;;10.00;9.00;;;;;27.01;43.71;100820.66;4993282;28;45512;-51
2021/06/02 09:00:10;;;;;;;;;12.75;11.25;;;;;27.03;44.66;100821.28;5012013;28;45712;-47
2021/06/02 09:02:38;;;;;;;;;14.25;12.50;;;;;27.05;44.63;100822.78;4998520;28;46477;-49
2021/06/02 09:05:04;;;;;;;;;12.25;12.25;;;;;27.08;44.64;100824.25;4998480;28;45270;-48
2021/06/02 09:07:31;;;;;;;;;13.00;10.25;;;;;27.06;44.67;100810.69;4998076;28;45564;-48
2021/06/02 09:10:01;;;;;;;;;10.50;8.50;;;;;27.13;44.38;100817.06;4982734;28;46307;-48
2021/06/02 09:12:35;;;;;;;;;13.00;12.00;;;;;27.19;44.90;100820.03;4978868;28;45470;-51
2021/06/02 09:15:20;;;;;;;;;13.25;11.00;;;;;27.22;44.39;100814.97;4978334;28;45438;-55
2021/06/02 09:17:52;;;;;;;;;11.25;11.25;;;;;27.25;44.42;100817.31;4978885;28;45615;-46
2021/06/02 09:20:39;;;;;;;;;14.50;12.25;;;;;27.27;44.25;100812.44;4978604;28;46575;-49
2021/06/02 09:23:26;;;;;;;;;10.50;10.00;;;;;27.29;44.33;100810.31;4978693;28;45483;-47
2021/06/02 09:25:57;;;;;;;;;12.50;10.50;;;;;27.34;44.04;100823.47;4988733;28;45393;-48
2021/06/02 09:28:23;;;;;;;;;15.75;12.50;;;;;27.36;44.25;100824.13;4998211;28;45351;-51
2021/06/02 09:30:48;;;;;;;;;11.75;10.25;;;;;27.39;44.60;100828.34;4998007;28;45397;-53
2021/06/02 09:33:14;;;;;;;;;12.00;12.00;;;;;27.39;44.76;100809.06;4996961;28;45298;-51
2021/06/02 09:35:43;;;;;;;;;10.00;10.00;;;;;27.44;44.55;100821.16;4997412;28;45423;-53
2021/06/02 09:38:24;;;;;;;;;11.25;9.75;;;;;27.49;44.66;100825.22;4998220;28;45539;-55
2021/06/02 09:40:54;;;;;;;;;11.25;10.00;;;;;27.52;44.37;100822.06;4996017;28;45554;-54
2021/06/02 09:43:31;;;;;;;;;10.25;9.50;;;;;27.55;44.53;100821.59;4997682;28;45570;-52
2021/06/02 09:46:02;;;;;;;;;12.25;12.00;;;;;27.58;44.68;100819.31;4997906;28;45447;-51
2021/06/02 09:48:28;;;;;;;;;11.75;11.00;;;;;27.55;44.28;100803.16;4998136;28;45234;-50
2021/06/02 09:50:53;;;;;;;;;11.00;11.00;;;;;27.53;45.05;100798.94;4997530;28;45499;-51
2021/06/02 09:53:19;;;;;;;;;11.25;10.75;;;;;27.69;45.15;100820.56;4995630;28;45452;-54
2021/06/02 09:55:44;;;;;;;;;11.00;10.75;;;;;27.73;44.98;100819.06;4998244;28;45398;-51
2021/06/02 09:58:14;;;;;;;;;12.75;12.25;;;;;27.77;44.35;100829.69;4997535;28;45481;-48
2021/06/02 10:00:45;;;;;;;;;11.75;11.75;;;;;27.80;44.53;100815.47;4997705;28;45529;-43
2021/06/02 10:03:16;;;;;;;;;10.50;10.50;;;;;27.83;44.84;100828.81;4997556;28;45623;-51
2021/06/02 10:05:51;;;;;;;;;12.50;12.50;;;;;27.85;44.07;100827.56;4997392;28;46639;-48
2021/06/02 10:08:51;;;;;;;;;11.00;9.25;;;;;27.89;44.48;100830.75;4996049;28;45555;-48
2021/06/02 10:11:18;;;;;;;;;14.25;13.25;;;;;27.92;44.47;100816.53;4987321;28;47544;-51
2021/06/02 10:13:50;;;;;;;;;13.75;12.25;;;;;27.93;44.14;100833.91;4997357;28;45393;-49
2021/06/02 10:16:34;;;;;;;;;12.00;12.00;;;;;27.95;44.56;100829.03;4997601;28;45459;-46
2021/06/02 10:19:01;;;;;;;;;14.50;11.25;;;;;27.97;44.26;100851.75;4997514;28;45299;-47
2021/06/02 10:21:44;;;;;;;;;11.25;11.25;;;;;27.98;44.44;100834.16;4997369;28;45492;-50
2021/06/02 10:24:10;;;;;;;;;12.25;11.25;;;;;28.00;44.48;100832.03;4996038;28;45354;-47
2021/06/02 10:26:38;;;;;;;;;13.00;11.75;;;;;28.03;44.22;100834.38;4997288;28;45795;-42
2021/06/02 10:29:03;;;;;;;;;15.25;11.50;;;;;28.05;44.69;100837.72;4997153;28;45571;-42
2021/06/02 10:31:29;;;;;;;;;12.75;10.00;;;;;28.05;44.80;100841.34;4997035;28;46006;-47
2021/06/02 10:33:54;;;;;;;;;12.25;12.25;;;;;28.07;44.53;100834.78;4997135;28;45374;-42
2021/06/02 10:36:20;;;;;;;;;9.00;9.00;;;;;28.09;44.56;100840.94;4997641;28;45313;-43
2021/06/02 10:38:51;;;;;;;;;13.50;11.75;;;;;28.11;44.02;100842.44;4997418;28;45348;-47
2021/06/02 10:41:25;;;;;;;;;12.25;12.25;;;;;28.13;44.24;100843.06;4996640;28;46000;-43
2021/06/02 10:43:55;;;;;;;;;12.75;12.00;;;;;28.15;44.23;100840.09;4996941;28;45686;-44
2021/06/02 10:46:23;;;;;;;;;11.00;9.75;;;;;28.18;44.36;100842.44;4997053;28;45510;-45
2021/06/02 10:48:53;;;;;;;;;12.25;11.25;;;;;28.20;44.25;100849.44;4996758;28;45485;-42
2021/06/02 10:51:26;;;;;;;;;12.00;12.00;;;;;28.24;44.62;100844.34;4995831;28;45512;-41
2021/06/02 10:54:14;;;;;;;;;13.25;11.50;;;;;28.27;44.50;100843.88;4995794;28;45472;-46
2021/06/02 10:57:01;;;;;;;;;14.00;12.75;;;;;28.31;44.09;100839.66;4996771;28;45527;-43
2021/06/02 10:59:37;;;;;;;;;11.00;11.00;;;;;28.35;44.56;100857.47;4985242;28;45363;-45
2021/06/02 11:02:18;;;;;;;;;9.25;9.00;;;;;28.39;44.08;100851.53;4996527;28;45297;-44
2021/06/02 11:04:56;;;;;;;;;12.75;12.75;;;;;28.40;44.33;100854.06;4996655;28;45523;-45
2021/06/02 11:07:27;;;;;;;;;10.00;10.00;;;;;28.41;44.29;100854.91;4996816;28;45480;-44
2021/06/02 11:10:00;;;;;;;;;11.50;11.50;;;;;28.44;43.48;100860.00;4981693;28;45299;-44
2021/06/02 11:12:50;;;;;;;;;10.50;10.25;;;;;28.45;44.50;100861.69;4976959;28;46158;-43
2021/06/02 11:15:34;;;;;;;;;11.00;11.00;;;;;28.49;43.76;100861.03;4977010;28;45397;-44
2021/06/02 11:18:08;;;;;;;;;10.75;10.75;;;;;28.53;44.19;100855.97;4976773;28;45545;-43
2021/06/02 11:20:44;;;;;;;;;12.00;11.00;;;;;28.56;44.23;100851.91;4977058;28;45505;-47
2021/06/02 11:23:11;;;;;;;;;11.50;10.25;;;;;28.60;43.87;100858.72;4991864;28;45376;-42
2021/06/02 11:25:40;;;;;;;;;11.75;10.75;;;;;28.64;43.95;100860.81;4982107;28;45734;-42
2021/06/02 11:28:07;;;;;;;;;10.75;10.75;;;;;28.68;44.00;100849.34;4996389;28;45584;-42
2021/06/02 11:30:33;;;;;;;;;11.75;11.00;;;;;28.69;43.73;100856.53;4996514;28;45474;-42
2021/06/02 11:33:11;;;;;;;;;12.00;11.25;;;;;28.71;43.04;100848.88;4996241;28;46065;-42
2021/06/02 11:36:02;;;;;;;;;11.00;11.00;;;;;28.75;43.07;100852.94;4996342;28;45460;-43
2021/06/02 11:38:28;;;;;;;;;12.50;10.50;;;;;28.77;43.77;100865.44;4996167;28;45440;-46
2021/06/02 11:40:54;;;;;;;;;12.00;11.25;;;;;28.80;43.47;100867.78;4996049;28;45543;-43
2021/06/02 11:43:20;;;;;;;;;15.00;9.75;;;;;28.81;43.49;100863.13;4995789;28;45987;-44
2021/06/02 11:45:48;;;;;;;;;11.75;11.00;;;;;28.84;43.71;100862.66;4995758;28;45318;-42
2021/06/02 11:48:20;;;;;;;;;11.50;9.75;;;;;28.90;43.41;100869.25;4996071;28;45391;-42
2021/06/02 11:50:46;;;;;;;;;12.75;11.00;;;;;28.93;43.14;100866.03;4996066;28;45401;-43
2021/06/02 11:53:11;;;;;;;;;11.75;10.75;;;;;28.95;42.94;100864.78;4995562;28;46407;-45
2021/06/02 11:55:38;;;;;;;;;10.75;10.75;;;;;28.98;43.36;100859.84;4995307;28;45526;-47